Time;durP1;ratioP1;P1;durP2;ratioP2;P2;SDS_P1;SDS_P2;PMS_P1;PMS_P2;Temp;Humidity;BMP_temperature;BMP_pressure;BME280_temperature;BME280_humidity;BME280_pressure;Samples;Min_cycle;Max_cycle;Signal;HPM_P1;HPM_P2
2023/05/12 00:02:16;;;;;;;5.68;3.75;;;;;;;15.14;42.12;100357.88;4934871;28;96839;-76
2023/05/12 00:04:42;;;;;;;10.40;3.53;;;;;;;15.33;41.96;100361.28;4904585;28;101367;-76
2023/05/12 00:07:07;;;;;;;11.02;3.92;;;;;;;15.13;42.14;100366.75;4866381;28;99150;-77
2023/05/12 00:09:33;;;;;;;11.75;4.32;;;;;;;15.19;41.95;100355.88;4902893;28;97458;-76
2023/05/12 00:11:59;;;;;;;7.13;3.42;;;;;;;15.14;42.01;100353.44;4896669;28;97163;-78
2023/05/12 00:14:24;;;;;;;9.85;4.05;;;;;;;15.35;41.79;100355.88;4907734;28;101598;-77
2023/05/12 00:16:50;;;;;;;8.52;4.47;;;;;;;15.25;42.00;100352.88;4944429;28;97617;-77
2023/05/12 00:19:17;;;;;;;11.27;4.18;;;;;;;15.20;41.92;100351.41;4932948;28;97210;-77
2023/05/12 00:21:43;;;;;;;13.07;4.30;;;;;;;15.13;42.17;100353.53;4910832;28;97249;-77
2023/05/12 00:24:08;;;;;;;12.73;5.28;;;;;;;15.21;42.41;100350.47;4925197;28;101028;-77
2023/05/12 00:26:34;;;;;;;6.60;4.10;;;;;;;15.10;42.77;100351.91;4946703;28;97905;-76
2023/05/12 00:28:59;;;;;;;7.88;4.07;;;;;;;15.24;42.04;100351.19;4929112;28;96755;-76
2023/05/12 00:31:25;;;;;;;7.50;4.53;;;;;;;15.00;42.67;100357.75;4918444;28;97303;-77
2023/05/12 00:33:51;;;;;;;7.57;4.15;;;;;;;14.92;42.68;100353.72;4941462;28;98832;-77
2023/05/12 00:36:16;;;;;;;12.60;4.32;;;;;;;15.11;42.71;100366.81;4933519;28;101361;-76
2023/05/12 00:38:42;;;;;;;11.10;4.90;;;;;;;14.91;43.15;100364.34;4905332;28;97219;-76
2023/05/12 00:41:07;;;;;;;8.45;4.00;;;;;;;14.55;43.22;100328.31;4900316;28;97483;-77
2023/05/12 00:43:33;;;;;;;8.25;4.38;;;;;;;14.57;43.57;100352.84;4913777;28;101701;-76
2023/05/12 00:46:00;;;;;;;7.22;4.45;;;;;;;14.69;43.27;100354.03;4897687;28;101538;-79
2023/05/12 00:48:26;;;;;;;12.88;4.65;;;;;;;14.97;42.76;100361.41;4898672;28;97398;-76
2023/05/12 00:50:51;;;;;;;7.55;4.13;;;;;;;14.69;43.67;100367.25;4965775;28;96841;-76
2023/05/12 00:53:17;;;;;;;11.98;4.72;;;;;;;14.58;43.54;100361.66;4933179;28;98286;-76
2023/05/12 00:55:43;;;;;;;9.00;4.70;;;;;;;14.83;42.97;100350.69;4931722;28;98043;-77
2023/05/12 00:58:09;;;;;;;9.90;4.38;;;;;;;14.75;43.60;100347.56;4919719;28;97035;-76
2023/05/12 01:00:35;;;;;;;12.27;4.43;;;;;;;14.22;44.32;100328.16;4912694;28;96933;-78
2023/05/12 01:03:00;;;;;;;11.27;4.30;;;;;;;14.77;43.38;100364.22;4937376;28;97404;-77
2023/05/12 01:05:52;;;;;;;9.65;5.05;;;;;;;14.63;43.70;100356.97;4917463;28;101564;-77
2023/05/12 01:08:18;;;;;;;10.48;4.30;;;;;;;14.65;43.29;100371.81;4897892;28;97652;-77
2023/05/12 01:10:44;;;;;;;9.70;4.15;;;;;;;14.53;43.88;100368.94;4912858;28;96942;-77
2023/05/12 01:13:11;;;;;;;7.80;4.95;;;;;;;14.28;44.30;100367.44;4925275;28;100145;-77
2023/05/12 01:15:41;;;;;;;7.65;4.30;;;;;;;14.69;43.73;100377.81;4929610;28;101638;-77
2023/05/12 01:18:07;;;;;;;7.20;4.55;;;;;;;14.63;43.81;100373.69;4933333;28;97196;-77
2023/05/12 01:20:34;;;;;;;7.72;4.40;;;;;;;14.28;44.00;100354.25;4924769;28;97140;-77
2023/05/12 01:23:00;;;;;;;8.98;4.57;;;;;;;14.57;43.79;100379.25;4925239;28;101237;-77
2023/05/12 01:25:30;;;;;;;7.55;4.00;;;;;;;14.59;43.90;100377.41;4919677;28;101722;-77
2023/05/12 01:27:56;;;;;;;9.30;5.00;;;;;;;14.65;43.50;100390.31;4914836;28;97279;-76
2023/05/12 01:30:23;;;;;;;9.45;4.72;;;;;;;14.47;43.63;100375.34;4909209;28;97025;-76
2023/05/12 01:32:49;;;;;;;11.27;4.40;;;;;;;14.54;44.02;100389.13;4910868;28;101766;-77
2023/05/12 01:35:15;;;;;;;18.42;4.88;;;;;;;14.37;44.08;100379.34;4901826;28;101597;-76
2023/05/12 01:37:47;;;;;;;20.45;5.10;;;;;;;14.47;43.95;100370.91;4917496;28;97653;-78
2023/05/12 01:40:12;;;;;;;11.40;4.03;;;;;;;14.56;43.85;100387.28;4924793;28;97172;-77
2023/05/12 01:42:40;;;;;;;9.50;4.85;;;;;;;14.29;44.40;100385.03;4909530;28;97933;-77
2023/05/12 01:45:07;;;;;;;10.80;4.55;;;;;;;14.17;44.47;100386.47;4911633;28;101097;-77
2023/05/12 01:47:32;;;;;;;12.32;4.88;;;;;;;13.94;44.91;100394.63;4894781;28;97331;-76
2023/05/12 01:50:04;;;;;;;10.52;4.28;;;;;;;14.26;43.90;100391.31;4911964;28;97008;-77
2023/05/12 01:52:30;;;;;;;14.98;5.15;;;;;;;13.88;45.26;100387.00;4925646;28;101866;-76
2023/05/12 01:54:56;;;;;;;14.68;4.75;;;;;;;13.84;45.34;100385.41;4895967;28;100753;-76
2023/05/12 01:57:22;;;;;;;7.88;4.93;;;;;;;13.86;45.22;100397.59;4913961;28;96762;-80
2023/05/12 01:59:50;;;;;;;5.95;4.22;;;;;;;14.02;45.06;100389.81;4918261;28;97240;-77
2023/05/12 02:02:15;;;;;;;10.75;4.25;;;;;;;13.99;45.44;100388.22;4894876;28;101458;-77
2023/05/12 02:04:42;;;;;;;11.23;4.75;;;;;;;14.14;44.62;100389.25;4926684;28;101155;-77
2023/05/12 02:07:07;;;;;;;8.15;3.90;;;;;;;14.02;44.56;100387.19;4914638;28;96799;-77
2023/05/12 02:09:33;;;;;;;7.57;4.80;;;;;;;13.78;45.31;100407.66;4942568;28;96927;-77
2023/05/12 02:12:01;;;;;;;9.55;4.50;;;;;;;13.81;45.18;100366.16;4922508;28;101549;-80
2023/05/12 02:14:27;;;;;;;12.15;4.78;;;;;;;13.87;45.64;100395.81;4933927;28;100967;-77
2023/05/12 02:16:54;;;;;;;11.40;4.57;;;;;;;13.90;45.17;100391.25;4930861;28;97440;-77
2023/05/12 02:19:22;;;;;;;7.47;4.30;;;;;;;13.74;45.44;100393.75;4913254;28;97214;-76
2023/05/12 02:21:48;;;;;;;6.22;4.60;;;;;;;13.78;45.62;100391.81;4916384;28;101241;-77
2023/05/12 02:24:15;;;;;;;8.63;4.65;;;;;;;13.76;45.31;100386.63;4926147;28;101049;-77
2023/05/12 02:26:41;;;;;;;8.27;4.57;;;;;;;13.47;45.96;100400.28;4928885;28;98551;-76
2023/05/12 02:29:07;;;;;;;11.18;4.38;;;;;;;13.90;45.03;100387.75;4942454;28;96933;-77
2023/05/12 02:31:33;;;;;;;10.30;4.10;;;;;;;13.88;45.26;100394.91;4924686;28;101212;-77
2023/05/12 02:34:00;;;;;;;10.77;4.55;;;;;;;13.52;45.58;100367.50;4910176;28;101310;-77
2023/05/12 02:36:25;;;;;;;9.23;4.97;;;;;;;13.71;45.06;100364.03;4931998;28;96981;-76
2023/05/12 02:38:51;;;;;;;12.70;5.00;;;;;;;13.56;45.99;100407.78;4922993;28;96823;-77
2023/05/12 02:41:17;;;;;;;11.02;4.03;;;;;;;13.82;45.68;100406.59;4931154;28;101271;-77
2023/05/12 02:43:42;;;;;;;9.00;4.53;;;;;;;13.70;45.32;100396.59;4921208;28;101303;-76
2023/05/12 02:46:08;;;;;;;9.52;4.10;;;;;;;13.83;45.69;100397.75;4940102;28;97246;-77
2023/05/12 02:48:34;;;;;;;10.55;4.28;;;;;;;13.69;46.15;100397.53;4945723;28;97010;-77
2023/05/12 02:50:59;;;;;;;9.35;5.00;;;;;;;13.80;45.85;100406.66;4948322;28;98097;-77
2023/05/12 02:53:26;;;;;;;22.52;5.95;;;;;;;13.86;45.71;100412.59;4935965;28;98164;-76
2023/05/12 02:55:52;;;;;;;10.27;5.03;;;;;;;13.76;45.93;100404.25;4939694;28;98375;-79
2023/05/12 02:58:17;;;;;;;10.40;4.80;;;;;;;13.41;46.47;100401.44;4938178;28;97470;-80
2023/05/12 03:00:43;;;;;;;7.95;5.03;;;;;;;13.55;46.27;100401.63;4942037;28;101223;-79
2023/05/12 03:03:09;;;;;;;9.27;4.40;;;;;;;13.52;46.18;100406.19;4914773;28;100246;-79
2023/05/12 03:05:34;;;;;;;11.77;4.53;;;;;;;13.45;46.06;100404.78;4926596;28;96858;-79
2023/05/12 03:08:00;;;;;;;10.55;5.18;;;;;;;13.75;45.99;100407.78;4921937;28;97245;-79
2023/05/12 03:10:25;;;;;;;7.13;4.57;;;;;;;13.85;46.02;100400.34;4919845;28;101695;-79
2023/05/12 03:12:52;;;;;;;8.77;4.35;;;;;;;13.69;46.03;100406.28;4922823;28;98026;-79
2023/05/12 03:15:17;;;;;;;9.85;4.75;;;;;;;13.70;46.15;100413.31;4914374;28;97839;-76
2023/05/12 03:17:43;;;;;;;10.35;4.50;;;;;;;13.58;46.30;100398.00;4948359;28;97483;-77
2023/05/12 03:20:09;;;;;;;10.05;4.30;;;;;;;13.11;47.54;100412.31;4941711;28;97955;-77
2023/05/12 03:22:35;;;;;;;9.57;4.95;;;;;;;13.33;46.80;100408.81;4938860;28;100660;-76
2023/05/12 03:25:03;;;;;;;10.38;4.80;;;;;;;13.06;47.27;100413.44;4941509;28;97229;-80
2023/05/12 03:27:31;;;;;;;8.63;4.95;;;;;;;13.43;46.57;100411.88;4917186;28;96909;-78
2023/05/12 03:29:59;;;;;;;12.38;4.90;;;;;;;13.12;47.13;100413.22;4944487;28;98218;-79
2023/05/12 03:32:25;;;;;;;8.93;4.65;;;;;;;13.54;46.42;100407.00;4894405;28;101295;-79
2023/05/12 03:34:51;;;;;;;8.48;4.05;;;;;;;13.52;46.70;100424.66;4930588;28;97168;-79
2023/05/12 03:37:16;;;;;;;8.25;4.35;;;;;;;13.32;47.42;100420.25;4923776;28;97075;-79
2023/05/12 03:39:43;;;;;;;13.95;4.63;;;;;;;13.42;46.72;100412.81;4915821;28;98307;-79
2023/05/12 03:42:09;;;;;;;12.82;4.50;;;;;;;12.94;47.50;100411.34;4935069;28;101489;-79
2023/05/12 03:44:34;;;;;;;9.68;4.55;;;;;;;13.21;46.99;100422.50;4948163;28;97179;-76
2023/05/12 03:47:00;;;;;;;15.05;4.88;;;;;;;13.27;46.80;100419.63;4913344;28;96809;-76
2023/05/12 03:49:26;;;;;;;10.73;4.85;;;;;;;13.17;47.30;100427.03;4936172;28;98194;-79
2023/05/12 03:51:51;;;;;;;12.75;4.55;;;;;;;13.28;46.61;100432.72;4914693;28;101658;-79
2023/05/12 03:54:18;;;;;;;18.42;4.47;;;;;;;13.18;46.82;100420.84;4923776;28;97153;-79
2023/05/12 03:56:43;;;;;;;8.40;4.95;;;;;;;13.42;46.80;100421.59;4943528;28;97327;-79
2023/05/12 03:59:10;;;;;;;11.25;4.57;;;;;;;13.15;46.85;100399.91;4925483;28;101162;-78
2023/05/12 04:01:36;;;;;;;10.30;4.68;;;;;;;13.57;46.39;100431.44;4914518;28;101800;-79
2023/05/12 04:04:02;;;;;;;12.35;4.97;;;;;;;13.53;46.61;100436.94;4923474;28;97643;-79
2023/05/12 04:06:28;;;;;;;13.20;4.97;;;;;;;13.44;46.57;100430.28;4944387;28;97250;-78
2023/05/12 04:08:53;;;;;;;11.80;4.40;;;;;;;13.48;45.91;100447.69;4915195;28;101766;-79
2023/05/12 04:11:19;;;;;;;10.15;4.40;;;;;;;13.48;46.79;100437.13;4935509;28;98127;-78
2023/05/12 04:13:44;;;;;;;14.98;4.75;;;;;;;13.49;46.24;100399.28;4919328;28;97253;-78
2023/05/12 04:16:10;;;;;;;9.70;4.47;;;;;;;13.52;46.28;100427.28;4896222;28;97344;-78
2023/05/12 04:18:35;;;;;;;16.85;4.80;;;;;;;13.64;45.98;100412.69;4941817;28;97488;-79
2023/05/12 04:21:01;;;;;;;9.73;4.75;;;;;;;14.17;45.39;100434.00;4920552;28;101190;-79
2023/05/12 04:23:27;;;;;;;10.90;4.80;;;;;;;14.31;45.08;100411.34;4912329;28;96892;-79
2023/05/12 04:25:53;;;;;;;8.18;4.30;;;;;;;14.69;44.65;100446.50;4913694;28;97972;-76
2023/05/12 04:28:19;;;;;;;10.45;4.25;;;;;;;14.47;44.94;100450.16;4884361;28;101302;-76
2023/05/12 04:30:45;;;;;;;21.35;5.65;;;;;;;14.74;44.07;100444.47;4925785;28;100489;-76
2023/05/12 04:33:11;;;;;;;13.20;4.68;;;;;;;14.50;44.18;100422.72;4907687;28;97238;-76
2023/05/12 04:35:37;;;;;;;12.32;5.53;;;;;;;14.70;44.23;100429.72;4928337;28;97159;-76
2023/05/12 04:38:03;;;;;;;12.75;4.78;;;;;;;14.80;44.28;100451.25;4909013;28;100304;-76
2023/05/12 04:40:29;;;;;;;10.18;4.45;;;;;;;14.79;43.34;100420.47;4909223;28;98392;-77
2023/05/12 04:42:55;;;;;;;14.63;4.63;;;;;;;14.94;43.79;100456.72;4929665;28;97290;-77
2023/05/12 04:45:20;;;;;;;9.35;4.57;;;;;;;14.98;43.43;100453.00;4916660;28;97430;-76
2023/05/12 04:47:46;;;;;;;11.82;5.13;;;;;;;15.16;43.30;100446.78;4902305;28;101331;-76
2023/05/12 04:50:12;;;;;;;8.50;4.75;;;;;;;15.49;42.89;100445.09;4917555;28;101522;-77
2023/05/12 04:52:37;;;;;;;14.70;5.30;;;;;;;15.52;43.00;100459.00;4902832;28;97243;-76
2023/05/12 04:55:04;;;;;;;17.42;4.60;;;;;;;15.76;42.19;100451.59;4910457;28;97508;-77
2023/05/12 04:57:30;;;;;;;9.73;4.53;;;;;;;16.25;41.18;100425.09;4916782;28;101076;-76
2023/05/12 04:59:58;;;;;;;7.05;3.83;;;;;;;16.04;41.57;100453.63;4926916;28;100260;-76
2023/05/12 05:02:25;;;;;;;16.63;5.22;;;;;;;16.34;41.45;100423.72;4908031;28;97147;-76
2023/05/12 05:04:51;;;;;;;10.23;4.93;;;;;;;16.68;40.90;100454.47;4913377;28;97491;-78
2023/05/12 05:07:18;;;;;;;10.23;4.60;;;;;;;16.83;40.52;100466.00;4908943;28;101057;-78
2023/05/12 05:09:43;;;;;;;9.15;4.57;;;;;;;16.11;41.14;100463.88;4922679;28;101335;-80
2023/05/12 05:12:09;;;;;;;10.70;4.80;;;;;;;16.68;41.02;100469.50;4921670;28;97215;-79
2023/05/12 05:14:34;;;;;;;14.25;4.57;;;;;;;16.68;41.09;100459.75;4927625;28;96854;-77
2023/05/12 05:17:01;;;;;;;13.18;4.78;;;;;;;17.14;40.03;100470.38;4907976;28;101791;-78
2023/05/12 05:19:26;;;;;;;5.93;3.60;;;;;;;17.39;40.16;100482.19;4917763;28;102114;-78
2023/05/12 05:21:52;;;;;;;13.63;5.28;;;;;;;16.72;39.97;100447.19;4900416;28;97559;-78
2023/05/12 05:24:18;;;;;;;15.48;4.80;;;;;;;17.00;40.05;100450.94;4907282;28;97341;-78
2023/05/12 05:26:44;;;;;;;11.80;4.45;;;;;;;18.23;38.47;100465.53;4923510;28;101523;-78
2023/05/12 05:29:10;;;;;;;14.13;4.88;;;;;;;19.54;36.98;100452.44;4914580;28;101582;-78
2023/05/12 05:31:35;;;;;;;15.20;5.03;;;;;;;21.35;34.05;100449.94;4919274;28;97078;-78
2023/05/12 05:34:01;;;;;;;12.48;5.30;;;;;;;22.59;32.12;100458.81;4929029;28;98475;-78
2023/05/12 05:36:28;;;;;;;12.27;4.35;;;;;;;23.69;30.23;100460.22;4913865;28;100863;-75
2023/05/12 05:38:53;;;;;;;11.18;4.95;;;;;;;26.70;26.95;100451.09;4935021;28;100823;-75
2023/05/12 05:41:20;;;;;;;7.68;4.55;;;;;;;30.29;23.37;100444.16;4906756;28;97372;-80
2023/05/12 05:43:45;;;;;;;10.95;4.72;;;;;;;33.36;20.36;100432.81;4916330;28;97098;-79
2023/05/12 05:46:11;;;;;;;10.77;4.75;;;;;;;35.82;18.15;100435.31;4930794;28;98096;-79
2023/05/12 05:48:37;;;;;;;11.80;5.20;;;;;;;37.08;16.69;100426.44;4935732;28;100328;-82
2023/05/12 05:51:04;;;;;;;10.50;4.30;;;;;;;36.29;17.28;100444.19;4927944;28;98240;-80
2023/05/12 05:53:30;;;;;;;7.03;4.55;;;;;;;37.82;15.85;100418.34;4920351;28;98196;-80
2023/05/12 05:55:55;;;;;;;11.20;4.88;;;;;;;38.23;15.51;100444.22;4916237;28;101085;-81
2023/05/12 05:58:22;;;;;;;6.43;4.78;;;;;;;39.21;15.38;100439.38;4916108;28;100876;-82
2023/05/12 06:00:49;;;;;;;8.32;4.70;;;;;;;40.53;14.42;100440.59;4916087;28;97684;-80
2023/05/12 06:03:15;;;;;;;10.82;5.05;;;;;;;41.22;13.94;100432.97;4896155;28;97649;-81
2023/05/12 06:05:42;;;;;;;10.55;4.70;;;;;;;41.95;13.11;100433.75;4920499;28;101760;-80
2023/05/12 06:08:12;;;;;;;9.15;4.32;;;;;;;42.95;12.83;100423.19;4902535;28;101610;-79
2023/05/12 06:10:38;;;;;;;7.40;4.70;;;;;;;44.29;12.62;100428.34;4914251;28;97245;-81
2023/05/12 06:13:03;;;;;;;8.82;4.93;;;;;;;45.40;11.78;100438.91;4930677;28;98567;-81
2023/05/12 06:15:29;;;;;;;12.63;4.05;;;;;;;45.18;11.81;100423.44;4922327;28;97717;-80
2023/05/12 06:17:55;;;;;;;8.68;4.30;;;;;;;46.49;11.09;100425.13;4912514;28;100408;-81
2023/05/12 06:20:22;;;;;;;10.10;4.30;;;;;;;43.59;12.41;100425.03;4916635;28;97170;-80
2023/05/12 06:22:48;;;;;;;12.30;4.05;;;;;;;43.76;12.32;100427.59;4902162;28;97437;-82
2023/05/12 06:25:16;;;;;;;8.60;4.20;;;;;;;46.93;10.68;100429.78;4916054;28;101520;-81
2023/05/12 06:27:41;;;;;;;7.13;4.65;;;;;;;47.27;10.61;100428.88;4913328;28;101100;-80
2023/05/12 06:30:08;;;;;;;7.85;4.18;;;;;;;47.48;10.65;100428.69;4913363;28;97490;-81
2023/05/12 06:32:34;;;;;;;7.82;3.90;;;;;;;48.64;10.11;100424.59;4922443;28;97224;-79
2023/05/12 06:35:00;;;;;;;9.60;4.38;;;;;;;49.23;10.46;100423.03;4909325;28;101480;-82
2023/05/12 06:37:26;;;;;;;9.30;3.75;;;;;;;49.85;9.90;100428.19;4916493;28;101534;-81
2023/05/12 06:39:51;;;;;;;7.75;4.30;;;;;;;50.78;9.36;100427.72;4921293;28;96970;-81
2023/05/12 06:42:17;;;;;;;7.22;4.07;;;;;;;49.44;10.09;100411.50;4942664;28;97153;-81
2023/05/12 06:44:48;;;;;;;13.02;4.18;;;;;;;51.15;9.12;100422.84;4941707;28;101440;-79
2023/05/12 06:47:14;;;;;;;5.95;3.90;;;;;;;50.64;9.35;100425.00;4921995;28;101197;-81
2023/05/12 06:49:39;;;;;;;6.78;3.85;;;;;;;51.84;8.81;100425.91;4926439;28;97260;-81
2023/05/12 06:52:05;;;;;;;8.90;5.07;;;;;;;52.47;8.47;100417.22;4918466;28;97973;-82
2023/05/12 06:54:31;;;;;;;9.27;4.40;;;;;;;51.22;9.12;100425.16;4925983;28;101169;-83
2023/05/12 06:56:57;;;;;;;7.65;4.20;;;;;;;51.92;8.54;100418.66;4932408;28;101452;-82
2023/05/12 06:59:23;;;;;;;7.40;4.45;;;;;;;52.61;8.41;100422.63;4924223;28;97567;-81
2023/05/12 07:01:49;;;;;;;5.38;4.15;;;;;;;52.70;8.57;100413.06;4917664;28;97343;-81
2023/05/12 07:04:14;;;;;;;8.10;4.68;;;;;;;54.32;7.58;100414.88;4917898;28;98587;-81
2023/05/12 07:06:40;;;;;;;10.25;4.40;;;;;;;54.58;7.70;100419.41;4941794;28;97343;-81
2023/05/12 07:09:05;;;;;;;6.63;4.43;;;;;;;52.80;8.12;100411.88;4914259;28;96998;-86
2023/05/12 07:11:31;;;;;;;8.90;4.20;;;;;;;53.06;8.08;100411.81;4895989;28;97425;-86
2023/05/12 07:13:57;;;;;;;5.57;4.10;;;;;;;54.03;8.16;100399.75;4894014;28;100102;-85
2023/05/12 07:16:23;;;;;;;7.75;4.60;;;;;;;54.79;7.98;100420.19;4901840;28;99596;-85
2023/05/12 07:18:48;;;;;;;5.78;4.57;;;;;;;53.90;7.98;100406.41;4920963;28;97566;-86
2023/05/12 07:21:14;;;;;;;11.57;4.78;;;;;;;55.99;7.09;100410.47;4906931;28;97376;-81
2023/05/12 07:23:40;;;;;;;5.70;4.13;;;;;;;55.54;7.00;100411.50;4888919;28;101118;-81
2023/05/12 07:26:06;;;;;;;6.82;4.32;;;;;;;55.35;7.08;100409.25;4891073;28;101130;-83
2023/05/12 07:28:36;;;;;;;8.38;4.50;;;;;;;56.72;6.46;100403.72;4870191;28;97303;-83
2023/05/12 07:31:06;;;;;;;5.40;4.15;;;;;;;55.90;7.21;100395.75;4897897;28;97309;-82
2023/05/12 07:33:33;;;;;;;6.13;4.38;;;;;;;57.91;6.42;100398.94;4883257;28;102396;-82
2023/05/12 07:35:59;;;;;;;7.85;4.85;;;;;;;58.81;6.52;100386.59;4879458;28;98013;-83
2023/05/12 07:38:25;;;;;;;5.90;4.30;;;;;;;58.96;5.90;100399.00;4886036;28;97595;-83
2023/05/12 07:40:50;;;;;;;8.73;4.65;;;;;;;58.91;6.16;100395.28;4891373;28;97290;-84
2023/05/12 07:43:16;;;;;;;6.82;4.93;;;;;;;57.99;6.14;100391.47;4890577;28;101101;-84
2023/05/12 07:45:42;;;;;;;9.52;4.40;;;;;;;58.37;5.90;100401.94;4896480;28;101407;-84
2023/05/12 07:48:09;;;;;;;6.93;4.57;;;;;;;59.65;5.72;100385.53;4895074;28;97065;-80
2023/05/12 07:50:35;;;;;;;6.73;5.23;;;;;;;58.95;5.82;100400.16;4894888;28;97455;-81
2023/05/12 07:53:00;;;;;;;6.28;5.15;;;;;;;59.12;5.93;100403.31;4891965;28;101915;-84
2023/05/12 07:55:26;;;;;;;7.85;4.63;;;;;;;59.09;5.38;100401.22;4906878;28;97519;-84
2023/05/12 07:57:51;;;;;;;5.93;5.32;;;;;;;57.75;6.21;100398.19;4894896;28;96904;-82
2023/05/12 08:00:17;;;;;;;9.98;4.70;;;;;;;58.99;5.98;100398.22;4923859;28;97314;-80
2023/05/12 08:02:43;;;;;;;8.20;5.75;;;;;;;59.35;6.04;100389.13;4913028;28;98591;-80
2023/05/12 08:05:09;;;;;;;5.30;4.30;;;;;;;60.02;5.71;100388.44;4909474;28;97323;-81
2023/05/12 08:07:36;;;;;;;5.90;5.18;;;;;;;59.39;5.58;100392.00;4893252;28;97681;-80
2023/05/12 08:10:02;;;;;;;5.78;4.88;;;;;;;60.23;5.03;100382.22;4898607;28;97550;-81
2023/05/12 08:12:28;;;;;;;7.37;4.93;;;;;;;60.53;5.29;100383.34;4897466;28;100960;-80
2023/05/12 08:14:53;;;;;;;8.52;5.22;;;;;;;60.00;5.25;100381.53;4920917;28;99709;-80
2023/05/12 08:17:19;;;;;;;7.85;5.78;;;;;;;61.27;4.89;100386.00;4920063;28;96822;-79
2023/05/12 08:19:44;;;;;;;6.97;5.55;;;;;;;61.72;5.45;100380.19;4919702;28;96882;-80
2023/05/12 08:22:10;;;;;;;9.45;5.13;;;;;;;61.88;5.01;100379.84;4890853;28;101288;-81
2023/05/12 08:24:35;;;;;;;5.68;4.65;;;;;;;58.80;5.84;100377.31;4917342;28;97553;-81
2023/05/12 08:27:08;;;;;;;7.50;4.47;;;;;;;59.50;5.91;100375.19;5101422;27;96769;-82
2023/05/12 08:29:34;;;;;;;6.68;5.10;;;;;;;60.06;5.52;100368.66;5055826;27;96935;-82
2023/05/12 08:31:59;;;;;;;7.78;4.80;;;;;;;59.05;5.98;100379.75;5072647;27;97609;-83
2023/05/12 08:34:25;;;;;;;5.63;5.13;;;;;;;57.09;6.63;100383.72;5072741;27;97386;-82
2023/05/12 08:36:52;;;;;;;6.25;4.45;;;;;;;56.37;6.51;100375.38;5038966;27;96935;-82
2023/05/12 08:39:18;;;;;;;5.23;3.97;;;;;;;56.20;6.96;100384.13;5056012;27;96816;-82
2023/05/12 08:41:51;;;;;;;5.18;4.10;;;;;;;55.74;6.74;100375.13;5054925;27;101004;-82
2023/05/12 08:44:18;;;;;;;5.00;4.10;;;;;;;54.97;7.31;100380.66;5073438;27;97317;-82
2023/05/12 08:46:43;;;;;;;8.53;4.73;;;;;;;51.53;7.92;100389.59;5072967;27;97365;-82
2023/05/12 08:49:14;;;;;;;7.82;4.13;;;;;;;50.27;8.45;100387.94;5073441;27;97107;-82
2023/05/12 08:51:43;;;;;;;8.05;3.83;;;;;;;46.91;10.38;100381.19;5072624;27;97960;-81
2023/05/12 08:54:11;;;;;;;5.20;3.35;;;;;;;42.89;12.22;100396.66;5055381;27;100831;-82
2023/05/12 08:56:37;;;;;;;;;;;;;;;41.19;13.67;100403.19;5073282;27;96818;-82
2023/05/12 08:59:05;;;;;;;11.32;3.53;;;;;;;39.32;14.70;100394.66;5038741;27;97069;-82
2023/05/12 09:01:33;;;;;;;7.65;3.67;;;;;;;38.28;15.52;100401.34;5055034;27;97533;-82
2023/05/12 09:03:59;;;;;;;;;;;;;;;38.13;16.33;100394.59;5072280;27;97368;-81
2023/05/12 09:06:24;;;;;;;8.77;2.83;;;;;;;37.90;15.91;100398.03;5036827;27;96782;-82
2023/05/12 09:08:50;;;;;;;4.80;2.80;;;;;;;36.11;17.16;100389.44;5056160;27;98301;-91
2023/05/12 09:11:16;;;;;;;3.60;2.70;;;;;;;34.58;18.00;100398.66;5054613;27;101632;-90
2023/05/12 09:13:59;;;;;;;2.78;2.50;;;;;;;34.35;18.69;100398.16;5037684;27;99688;-88
2023/05/12 09:16:28;;;;;;;10.60;2.97;;;;;;;31.88;20.65;100403.44;5052929;27;96903;-90
2023/05/12 09:18:59;;;;;;;11.95;3.20;;;;;;;30.00;22.24;100405.84;5069777;27;97041;-89
2023/05/12 09:21:25;;;;;;;4.45;2.83;;;;;;;30.32;22.34;100403.19;5071357;27;97175;-89
2023/05/12 09:23:51;;;;;;;7.82;2.92;;;;;;;30.21;23.44;100405.25;5052937;27;101889;-85
2023/05/12 09:26:17;;;;;;;6.47;2.88;;;;;;;29.78;23.83;100395.81;5076464;27;97052;-88
2023/05/12 09:28:43;;;;;;;8.52;2.95;;;;;;;29.22;23.65;100414.69;5032455;27;96953;-87
2023/05/12 09:31:19;;;;;;;8.65;2.70;;;;;;;28.48;25.00;100404.84;5030034;27;100989;-84
2023/05/12 09:33:45;;;;;;;11.27;2.97;;;;;;;28.97;25.17;100388.66;5027835;27;97568;-85
2023/05/12 09:36:15;;;;;;;12.68;2.90;;;;;;;28.53;24.62;100408.72;5010477;27;97269;-85
2023/05/12 09:38:40;;;;;;;6.60;3.17;;;;;;;28.15;25.49;100407.44;5020372;27;97151;-81
2023/05/12 09:41:06;;;;;;;6.10;2.83;;;;;;;28.20;25.01;100410.50;5016854;28;101418;-86
2023/05/12 09:43:32;;;;;;;12.60;2.63;;;;;;;26.96;26.01;100394.59;5037963;27;97519;-84
2023/05/12 09:46:04;;;;;;;7.68;2.92;;;;;;;27.03;26.20;100409.16;5015111;27;96866;-85
2023/05/12 09:48:30;;;;;;;7.32;2.80;;;;;;;26.48;25.83;100409.31;5004960;27;96851;-87
2023/05/12 09:50:56;;;;;;;7.00;2.63;;;;;;;26.47;26.76;100410.31;5001443;27;101445;-81
2023/05/12 09:53:22;;;;;;;5.60;2.20;;;;;;;26.21;26.35;100418.28;5018899;27;97433;-82
2023/05/12 09:55:48;;;;;;;5.93;2.00;;;;;;;25.64;26.27;100402.22;5019731;27;97160;-77
2023/05/12 09:58:18;;;;;;;4.90;2.90;;;;;;;25.13;27.09;100373.94;4997745;27;97304;-79
2023/05/12 10:00:44;;;;;;;5.78;2.63;;;;;;;25.84;27.06;100396.81;5014146;27;98029;-77
2023/05/12 10:03:13;;;;;;;26.17;3.08;;;;;;;25.48;28.06;100389.44;5011921;27;97391;-79
2023/05/12 10:05:47;;;;;;;6.07;2.42;;;;;;;24.68;27.78;100400.56;5027128;27;97279;-75
2023/05/12 10:08:19;;;;;;;10.10;2.30;;;;;;;25.04;27.31;100398.97;5026265;27;97146;-76
2023/05/12 10:10:47;;;;;;;4.32;2.58;;;;;;;25.00;28.34;100405.63;5013692;27;101301;-76
2023/05/12 10:13:13;;;;;;;6.75;2.67;;;;;;;24.83;28.27;100408.03;5012457;27;101584;-80
2023/05/12 10:15:39;;;;;;;6.53;2.70;;;;;;;24.80;27.96;100402.94;5015049;27;98400;-80
2023/05/12 10:18:05;;;;;;;5.97;3.03;;;;;;;24.65;28.23;100392.78;5012229;27;97831;-76
2023/05/12 10:20:32;;;;;;;7.32;2.55;;;;;;;24.53;27.74;100397.44;4998680;27;101936;-77
2023/05/12 10:22:58;;;;;;;6.93;2.47;;;;;;;24.48;28.24;100391.66;5007498;27;101847;-80
2023/05/12 10:25:23;;;;;;;3.63;2.17;;;;;;;24.36;28.66;100374.81;5023900;27;97160;-82
2023/05/12 10:27:51;;;;;;;5.88;2.38;;;;;;;24.39;28.88;100391.47;5053524;27;97188;-84
2023/05/12 10:30:16;;;;;;;5.97;2.40;;;;;;;24.09;29.54;100399.63;5046484;27;98023;-84
2023/05/12 10:32:42;;;;;;;3.95;2.00;;;;;;;23.93;29.86;100400.13;5063119;27;101667;-81
2023/05/12 10:35:09;;;;;;;5.80;2.80;;;;;;;23.90;28.75;100365.53;5049089;27;97374;-81
2023/05/12 10:37:36;;;;;;;6.45;2.70;;;;;;;24.12;28.00;100397.50;5070746;27;97398;-84
2023/05/12 10:40:03;;;;;;;6.30;2.40;;;;;;;24.28;27.03;100404.16;5045466;27;101249;-82
2023/05/12 10:42:37;;;;;;;8.35;2.80;;;;;;;24.29;27.84;100400.47;5044489;27;100700;-83
2023/05/12 10:45:15;;;;;;;8.88;2.13;;;;;;;24.34;27.32;100393.72;5052402;27;97065;-83
2023/05/12 10:47:41;;;;;;;7.80;2.22;;;;;;;24.38;27.58;100396.97;5068504;27;97262;-78
2023/05/12 10:50:07;;;;;;;6.18;2.58;;;;;;;24.08;27.81;100385.34;5023990;27;101458;-83
2023/05/12 10:52:32;;;;;;;10.05;2.90;;;;;;;24.52;27.33;100401.97;5046541;27;97415;-84
2023/05/12 10:55:00;;;;;;;6.78;2.25;;;;;;;24.03;27.31;100401.00;5050448;27;97491;-83
2023/05/12 10:57:25;;;;;;;10.73;2.85;;;;;;;24.19;27.51;100397.78;5050337;27;97321;-81
2023/05/12 10:59:55;;;;;;;5.90;2.42;;;;;;;24.24;27.83;100394.69;5046727;27;97598;-82
2023/05/12 11:02:29;;;;;;;6.80;2.50;;;;;;;23.79;27.95;100389.78;5063270;27;98082;-81
2023/05/12 11:04:58;;;;;;;3.30;2.30;;;;;;;23.89;28.18;100393.34;5031067;27;97445;-80
2023/05/12 11:07:33;;;;;;;6.72;2.28;;;;;;;24.13;27.93;100391.13;5067773;27;97398;-83
2023/05/12 11:09:59;;;;;;;6.47;2.20;;;;;;;24.09;27.79;100388.88;5024889;27;100371;-81
2023/05/12 11:12:27;;;;;;;3.72;2.38;;;;;;;23.70;28.07;100375.34;5067344;27;97336;-79
2023/05/12 11:14:53;;;;;;;9.15;2.40;;;;;;;23.97;27.82;100395.31;5044403;27;97996;-81
2023/05/12 11:17:18;;;;;;;4.40;2.70;;;;;;;23.92;28.24;100390.38;5052089;27;97153;-79
2023/05/12 11:19:49;;;;;;;8.77;2.60;;;;;;;23.69;28.23;100395.06;5048004;27;97384;-78